sensor_id;sensor_type;location;lat;lon;timestamp;pressure;altitude;pressure_sealevel;temperature;humidity
62980;BME280;49075;53.988;27.678;2023-01-30T00:01:24;978.5;;;-2.8;80.3
62980;BME280;49075;53.988;27.678;2023-01-30T00:06:21;978.4;;;-2.8;80.6
62980;BME280;49075;53.988;27.678;2023-01-30T00:11:25;978.5;;;-2.9;81.2
62980;BME280;49075;53.988;27.678;2023-01-30T00:16:13;978.4;;;-2.9;81.1
62980;BME280;49075;53.988;27.678;2023-01-30T00:21:57;978.4;;;-3;81.7
62980;BME280;49075;53.988;27.678;2023-01-30T00:26:13;978.3;;;-2.8;81
62980;BME280;49075;53.988;27.678;2023-01-30T00:31:13;978.2;;;-2.8;81.2
62980;BME280;49075;53.988;27.678;2023-01-30T00:36:23;978.1;;;-2.8;81.2
62980;BME280;49075;53.988;27.678;2023-01-30T00:41:25;978.1;;;-2.8;80.9
62980;BME280;49075;53.988;27.678;2023-01-30T00:46:23;978;;;-2.9;81.4
62980;BME280;49075;53.988;27.678;2023-01-30T00:51:13;978;;;-2.7;80.6
62980;BME280;49075;53.988;27.678;2023-01-30T00:56:13;977.9;;;-2.6;80.1
62980;BME280;49075;53.988;27.678;2023-01-30T01:01:29;977.8;;;-2.7;80.5
62980;BME280;49075;53.988;27.678;2023-01-30T01:06:19;977.7;;;-2.7;80.5
62980;BME280;49075;53.988;27.678;2023-01-30T01:11:31;977.6;;;-2.8;80.5
62980;BME280;49075;53.988;27.678;2023-01-30T01:16:35;977.6;;;-2.8;80.7
62980;BME280;49075;53.988;27.678;2023-01-30T01:21:33;977.5;;;-2.7;80.4
62980;BME280;49075;53.988;27.678;2023-01-30T01:26:13;977.4;;;-2.7;80.3
62980;BME280;49075;53.988;27.678;2023-01-30T01:31:13;977.3;;;-2.8;80.5
62980;BME280;49075;53.988;27.678;2023-01-30T01:36:25;977.2;;;-2.9;81.4
62980;BME280;49075;53.988;27.678;2023-01-30T01:41:21;977.1;;;-2.9;81.5
62980;BME280;49075;53.988;27.678;2023-01-30T01:46:16;977;;;-2.8;81.3
62980;BME280;49075;53.988;27.678;2023-01-30T01:51:24;976.9;;;-2.7;80.8
62980;BME280;49075;53.988;27.678;2023-01-30T01:56:13;976.8;;;-2.8;81
62980;BME280;49075;53.988;27.678;2023-01-30T02:01:23;976.7;;;-2.8;81.1
62980;BME280;49075;53.988;27.678;2023-01-30T02:06:23;976.6;;;-2.7;81.2
62980;BME280;49075;53.988;27.678;2023-01-30T02:11:13;976.5;;;-2.8;81.4
62980;BME280;49075;53.988;27.678;2023-01-30T02:16:23;976.4;;;-2.9;82.1
62980;BME280;49075;53.988;27.678;2023-01-30T02:21:42;976.3;;;-3;82.3
62980;BME280;49075;53.988;27.678;2023-01-30T02:26:39;976.2;;;-2.9;82.1
62980;BME280;49075;53.988;27.678;2023-01-30T02:31:38;976.1;;;-3;82.4
62980;BME280;49075;53.988;27.678;2023-01-30T02:36:16;976;;;-3.2;83.2
62980;BME280;49075;53.988;27.678;2023-01-30T02:41:17;975.9;;;-2.9;82.1
62980;BME280;49075;53.988;27.678;2023-01-30T02:46:37;975.8;;;-2.8;81.7
62980;BME280;49075;53.988;27.678;2023-01-30T02:51:15;975.7;;;-2.8;81.6
62980;BME280;49075;53.988;27.678;2023-01-30T02:56:15;975.7;;;-2.8;81.7
62980;BME280;49075;53.988;27.678;2023-01-30T03:01:41;975.6;;;-2.8;81.8
62980;BME280;49075;53.988;27.678;2023-01-30T03:06:29;975.5;;;-2.8;82
62980;BME280;49075;53.988;27.678;2023-01-30T03:11:15;975.4;;;-2.8;82
62980;BME280;49075;53.988;27.678;2023-01-30T03:16:27;975.3;;;-2.9;82.4
62980;BME280;49075;53.988;27.678;2023-01-30T03:21:25;975.2;;;-3;82.8
62980;BME280;49075;53.988;27.678;2023-01-30T03:26:16;975.1;;;-3;83.2
62980;BME280;49075;53.988;27.678;2023-01-30T03:31:25;974.9;;;-3.1;83.2
62980;BME280;49075;53.988;27.678;2023-01-30T03:36:35;974.8;;;-3.2;83.6
62980;BME280;49075;53.988;27.678;2023-01-30T03:41:25;974.6;;;-3.2;83.4
62980;BME280;49075;53.988;27.678;2023-01-30T03:46:15;974.6;;;-3.1;83.2
62980;BME280;49075;53.988;27.678;2023-01-30T03:51:25;974.5;;;-3.1;83.1
62980;BME280;49075;53.988;27.678;2023-01-30T03:56:47;974.4;;;-3.2;83.7
62980;BME280;49075;53.988;27.678;2023-01-30T04:01:15;974.3;;;-3;82.9
62980;BME280;49075;53.988;27.678;2023-01-30T04:06:43;974.3;;;-3.1;83.5
62980;BME280;49075;53.988;27.678;2023-01-30T04:11:29;974.1;;;-3.1;83.3
62980;BME280;49075;53.988;27.678;2023-01-30T04:16:25;974.1;;;-3.1;83.5
62980;BME280;49075;53.988;27.678;2023-01-30T04:21:23;974;;;-3.2;84
62980;BME280;49075;53.988;27.678;2023-01-30T04:26:35;974;;;-3;83.3
62980;BME280;49075;53.988;27.678;2023-01-30T04:31:15;973.9;;;-3.1;83.5
62980;BME280;49075;53.988;27.678;2023-01-30T04:36:15;973.8;;;-3;83.1
62980;BME280;49075;53.988;27.678;2023-01-30T04:41:15;973.6;;;-3.2;83.6
62980;BME280;49075;53.988;27.678;2023-01-30T04:46:15;973.5;;;-3.1;82.9
62980;BME280;49075;53.988;27.678;2023-01-30T04:51:13;973.5;;;-3.1;82.8
62980;BME280;49075;53.988;27.678;2023-01-30T04:56:13;973.4;;;-3.1;82.9
62980;BME280;49075;53.988;27.678;2023-01-30T05:01:13;973.2;;;-3.1;83.1
62980;BME280;49075;53.988;27.678;2023-01-30T05:06:31;973.1;;;-3.3;83.3
62980;BME280;49075;53.988;27.678;2023-01-30T05:11:23;973;;;-3.1;83.1
62980;BME280;49075;53.988;27.678;2023-01-30T05:16:21;972.9;;;-3.1;83.1
62980;BME280;49075;53.988;27.678;2023-01-30T05:21:14;972.8;;;-3.1;83
62980;BME280;49075;53.988;27.678;2023-01-30T05:26:25;972.7;;;-3.1;83.1
62980;BME280;49075;53.988;27.678;2023-01-30T05:31:13;972.6;;;-3.3;83.9
62980;BME280;49075;53.988;27.678;2023-01-30T05:36:31;972.5;;;-3.2;84
62980;BME280;49075;53.988;27.678;2023-01-30T05:41:15;972.4;;;-3.2;84
62980;BME280;49075;53.988;27.678;2023-01-30T05:46:15;972.4;;;-3;83.3
62980;BME280;49075;53.988;27.678;2023-01-30T05:51:26;972.3;;;-3.3;84.1
62980;BME280;49075;53.988;27.678;2023-01-30T05:56:15;972.1;;;-3.2;84.3
62980;BME280;49075;53.988;27.678;2023-01-30T06:01:19;972.1;;;-3.1;83.8
62980;BME280;49075;53.988;27.678;2023-01-30T06:06:25;971.9;;;-3.2;83.9
62980;BME280;49075;53.988;27.678;2023-01-30T06:11:14;971.8;;;-3.3;84.6
62980;BME280;49075;53.988;27.678;2023-01-30T06:16:35;971.7;;;-3.3;84.4
62980;BME280;49075;53.988;27.678;2023-01-30T06:21:31;971.7;;;-3.4;84.7
62980;BME280;49075;53.988;27.678;2023-01-30T06:26:13;971.7;;;-3.3;84.5
62980;BME280;49075;53.988;27.678;2023-01-30T06:31:29;971.6;;;-3.3;84.3
62980;BME280;49075;53.988;27.678;2023-01-30T06:36:23;971.6;;;-3.2;84.2
62980;BME280;49075;53.988;27.678;2023-01-30T06:41:23;971.5;;;-3.3;84.5
62980;BME280;49075;53.988;27.678;2023-01-30T06:46:25;971.3;;;-3.2;84
62980;BME280;49075;53.988;27.678;2023-01-30T06:51:37;971.2;;;-3.1;83.6
62980;BME280;49075;53.988;27.678;2023-01-30T06:56:25;971.1;;;-3.2;84
62980;BME280;49075;53.988;27.678;2023-01-30T07:01:25;971.1;;;-3.1;83.3
62980;BME280;49075;53.988;27.678;2023-01-30T07:06:13;971.2;;;-3;83
62980;BME280;49075;53.988;27.678;2023-01-30T07:11:23;971.1;;;-3;83
62980;BME280;49075;53.988;27.678;2023-01-30T07:16:13;971.1;;;-3.2;83.8
62980;BME280;49075;53.988;27.678;2023-01-30T07:21:13;971;;;-3.1;83.4
62980;BME280;49075;53.988;27.678;2023-01-30T07:26:23;970.8;;;-3;83
62980;BME280;49075;53.988;27.678;2023-01-30T07:31:13;970.7;;;-3;83.2
62980;BME280;49075;53.988;27.678;2023-01-30T07:36:21;970.6;;;-3.1;83.6
62980;BME280;49075;53.988;27.678;2023-01-30T07:41:21;970.7;;;-3.2;84.1
62980;BME280;49075;53.988;27.678;2023-01-30T07:47:01;970.6;;;-3;83.4
62980;BME280;49075;53.988;27.678;2023-01-30T07:51:15;970.5;;;-2.9;83
62980;BME280;49075;53.988;27.678;2023-01-30T07:56:13;970.4;;;-3.1;83.8
62980;BME280;49075;53.988;27.678;2023-01-30T08:01:23;970.2;;;-2.7;82.7
62980;BME280;49075;53.988;27.678;2023-01-30T08:06:27;970.2;;;-2.9;83.1
62980;BME280;49075;53.988;27.678;2023-01-30T08:11:27;970;;;-3;83.6
62980;BME280;49075;53.988;27.678;2023-01-30T08:16:15;970;;;-2.9;83.4
62980;BME280;49075;53.988;27.678;2023-01-30T08:21:15;969.9;;;-3;84
62980;BME280;49075;53.988;27.678;2023-01-30T08:26:15;969.9;;;-3;84.3
62980;BME280;49075;53.988;27.678;2023-01-30T08:31:15;969.7;;;-2.9;83.7
62980;BME280;49075;53.988;27.678;2023-01-30T08:36:15;969.6;;;-3.2;84.8
62980;BME280;49075;53.988;27.678;2023-01-30T08:41:35;969.5;;;-3.1;84.9
62980;BME280;49075;53.988;27.678;2023-01-30T08:46:13;969.4;;;-3.2;85.1
62980;BME280;49075;53.988;27.678;2023-01-30T08:51:13;969.4;;;-3.2;85.2
62980;BME280;49075;53.988;27.678;2023-01-30T08:56:35;969.3;;;-3;84.8
62980;BME280;49075;53.988;27.678;2023-01-30T09:01:35;969.1;;;-2.9;84.6
62980;BME280;49075;53.988;27.678;2023-01-30T09:06:35;969.1;;;-2.9;85
62980;BME280;49075;53.988;27.678;2023-01-30T09:11:13;969;;;-2.9;84.9
62980;BME280;49075;53.988;27.678;2023-01-30T09:16:13;968.8;;;-3;85.1
62980;BME280;49075;53.988;27.678;2023-01-30T09:21:25;968.7;;;-2.9;84.6
62980;BME280;49075;53.988;27.678;2023-01-30T09:26:25;968.7;;;-3.1;85.5
62980;BME280;49075;53.988;27.678;2023-01-30T09:31:35;968.5;;;-2.9;84.8
62980;BME280;49075;53.988;27.678;2023-01-30T09:36:27;968.4;;;-2.9;84.9
62980;BME280;49075;53.988;27.678;2023-01-30T09:41:20;968.4;;;-2.7;84
62980;BME280;49075;53.988;27.678;2023-01-30T09:46:47;968.3;;;-2.9;84.1
62980;BME280;49075;53.988;27.678;2023-01-30T09:51:39;968.2;;;-2.7;83.5
62980;BME280;49075;53.988;27.678;2023-01-30T09:56:21;968.1;;;-2.8;83.5
62980;BME280;49075;53.988;27.678;2023-01-30T10:01:25;967.9;;;-2.7;83.5
62980;BME280;49075;53.988;27.678;2023-01-30T10:06:13;967.9;;;-2.6;83
62980;BME280;49075;53.988;27.678;2023-01-30T10:11:26;967.8;;;-2.6;83.3
62980;BME280;49075;53.988;27.678;2023-01-30T10:16:23;967.7;;;-2.7;83.4
62980;BME280;49075;53.988;27.678;2023-01-30T10:21:39;967.6;;;-2.5;82.8
62980;BME280;49075;53.988;27.678;2023-01-30T10:26:35;967.5;;;-2.6;83.1
62980;BME280;49075;53.988;27.678;2023-01-30T10:31:13;967.5;;;-2.8;84.4
62980;BME280;49075;53.988;27.678;2023-01-30T10:36:24;967.4;;;-2.7;84.7
62980;BME280;49075;53.988;27.678;2023-01-30T10:41:25;967.3;;;-2.6;84.5
62980;BME280;49075;53.988;27.678;2023-01-30T10:46:29;967.2;;;-2.7;84.4
62980;BME280;49075;53.988;27.678;2023-01-30T10:51:16;967.1;;;-2.6;84
62980;BME280;49075;53.988;27.678;2023-01-30T10:56:14;967.2;;;-2.7;83.8
62980;BME280;49075;53.988;27.678;2023-01-30T11:01:23;967.1;;;-2.5;83.2
62980;BME280;49075;53.988;27.678;2023-01-30T11:06:14;967;;;-2.7;84
62980;BME280;49075;53.988;27.678;2023-01-30T11:11:30;966.9;;;-2.4;83.4
62980;BME280;49075;53.988;27.678;2023-01-30T11:16:25;966.9;;;-2.6;84.3
62980;BME280;49075;53.988;27.678;2023-01-30T11:21:14;966.8;;;-2.7;85.4
62980;BME280;49075;53.988;27.678;2023-01-30T11:26:35;966.7;;;-2.5;84
62980;BME280;49075;53.988;27.678;2023-01-30T11:31:24;966.5;;;-2.7;84.4
62980;BME280;49075;53.988;27.678;2023-01-30T11:36:29;966.5;;;-2.5;83.8
62980;BME280;49075;53.988;27.678;2023-01-30T11:41:38;966.4;;;-2.5;84.2
62980;BME280;49075;53.988;27.678;2023-01-30T11:46:15;966.4;;;-2.4;83.9
62980;BME280;49075;53.988;27.678;2023-01-30T11:51:23;966.3;;;-2.5;84.1
62980;BME280;49075;53.988;27.678;2023-01-30T11:56:14;966.3;;;-2.4;83.6
62980;BME280;49075;53.988;27.678;2023-01-30T12:01:26;966.2;;;-2.6;84.3
62980;BME280;49075;53.988;27.678;2023-01-30T12:06:23;966.1;;;-2.4;83.8
62980;BME280;49075;53.988;27.678;2023-01-30T12:11:23;966;;;-2.5;83.9
62980;BME280;49075;53.988;27.678;2023-01-30T12:16:39;965.9;;;-2.4;83.5
62980;BME280;49075;53.988;27.678;2023-01-30T12:21:19;965.9;;;-2.5;83.8
62980;BME280;49075;53.988;27.678;2023-01-30T12:26:39;965.9;;;-2.3;83.2
62980;BME280;49075;53.988;27.678;2023-01-30T12:31:47;965.9;;;-2.2;82.6
62980;BME280;49075;53.988;27.678;2023-01-30T12:36:27;965.9;;;-2.3;82.8
62980;BME280;49075;53.988;27.678;2023-01-30T12:41:19;965.8;;;-2.4;83.3
62980;BME280;49075;53.988;27.678;2023-01-30T12:46:55;965.7;;;-2.3;82.9
62980;BME280;49075;53.988;27.678;2023-01-30T12:51:33;965.7;;;-2.3;82.8
62980;BME280;49075;53.988;27.678;2023-01-30T12:56:29;965.7;;;-2.3;82.6
62980;BME280;49075;53.988;27.678;2023-01-30T13:01:17;965.7;;;-2.3;82.8
62980;BME280;49075;53.988;27.678;2023-01-30T13:06:19;965.7;;;-2.2;82.5
62980;BME280;49075;53.988;27.678;2023-01-30T13:11:29;965.6;;;-2.4;83
62980;BME280;49075;53.988;27.678;2023-01-30T13:16:29;965.6;;;-2.5;83.7
62980;BME280;49075;53.988;27.678;2023-01-30T13:21:15;965.5;;;-2.5;83.8
62980;BME280;49075;53.988;27.678;2023-01-30T13:26:27;965.5;;;-2.4;83.4
62980;BME280;49075;53.988;27.678;2023-01-30T13:31:15;965.4;;;-2.5;83.4
62980;BME280;49075;53.988;27.678;2023-01-30T13:36:39;965.4;;;-2.3;82.9
62980;BME280;49075;53.988;27.678;2023-01-30T13:41:38;965.4;;;-2.7;83.8
62980;BME280;49075;53.988;27.678;2023-01-30T13:46:27;965.3;;;-2.4;82.8
62980;BME280;49075;53.988;27.678;2023-01-30T13:51:44;965.3;;;-2.4;82.3
62980;BME280;49075;53.988;27.678;2023-01-30T13:56:16;965.2;;;-2.4;82.1
62980;BME280;49075;53.988;27.678;2023-01-30T14:02:19;965.1;;;-2.3;81.8
62980;BME280;49075;53.988;27.678;2023-01-30T14:06:36;965.2;;;-2.3;81.5
62980;BME280;49075;53.988;27.678;2023-01-30T14:11:32;965.2;;;-2.4;81.7
62980;BME280;49075;53.988;27.678;2023-01-30T14:16:38;965.2;;;-2.5;82
62980;BME280;49075;53.988;27.678;2023-01-30T14:21:25;965.3;;;-2.5;82
62980;BME280;49075;53.988;27.678;2023-01-30T14:27:30;965.3;;;-2.5;81.8
62980;BME280;49075;53.988;27.678;2023-01-30T14:31:45;965.3;;;-2.4;81.7
62980;BME280;49075;53.988;27.678;2023-01-30T14:36:28;965.3;;;-2.5;81.6
62980;BME280;49075;53.988;27.678;2023-01-30T14:41:27;965.3;;;-2.4;81.1
62980;BME280;49075;53.988;27.678;2023-01-30T14:46:38;965.3;;;-2.3;80.8
62980;BME280;49075;53.988;27.678;2023-01-30T14:51:16;965.3;;;-2.3;80.8
62980;BME280;49075;53.988;27.678;2023-01-30T14:56:55;965.3;;;-2.3;80.5
62980;BME280;49075;53.988;27.678;2023-01-30T15:01:15;965.4;;;-2.2;80.3
62980;BME280;49075;53.988;27.678;2023-01-30T15:06:13;965.3;;;-2.3;80.4
62980;BME280;49075;53.988;27.678;2023-01-30T15:11:37;965.3;;;-2.4;80.5
62980;BME280;49075;53.988;27.678;2023-01-30T15:16:34;965.4;;;-2.4;80.6
62980;BME280;49075;53.988;27.678;2023-01-30T15:21:33;965.4;;;-2.3;80.2
62980;BME280;49075;53.988;27.678;2023-01-30T15:26:42;965.5;;;-2.4;80.6
62980;BME280;49075;53.988;27.678;2023-01-30T15:31:15;965.5;;;-2.5;81.6
62980;BME280;49075;53.988;27.678;2023-01-30T15:36:17;965.5;;;-2.5;81.6
62980;BME280;49075;53.988;27.678;2023-01-30T15:41:15;965.5;;;-2.4;81.4
62980;BME280;49075;53.988;27.678;2023-01-30T15:46:39;965.5;;;-2.3;81.1
62980;BME280;49075;53.988;27.678;2023-01-30T15:51:15;965.6;;;-2.4;81.2
62980;BME280;49075;53.988;27.678;2023-01-30T15:56:16;965.7;;;-2.6;82
62980;BME280;49075;53.988;27.678;2023-01-30T16:01:27;965.7;;;-2.5;81.4
62980;BME280;49075;53.988;27.678;2023-01-30T16:06:37;965.7;;;-2.4;81
62980;BME280;49075;53.988;27.678;2023-01-30T16:11:36;965.7;;;-2.4;81
62980;BME280;49075;53.988;27.678;2023-01-30T16:16:27;965.7;;;-2.4;80.8
62980;BME280;49075;53.988;27.678;2023-01-30T16:21:25;965.7;;;-2.5;80.8
62980;BME280;49075;53.988;27.678;2023-01-30T16:26:25;965.7;;;-2.4;80.3
62980;BME280;49075;53.988;27.678;2023-01-30T16:31:57;965.8;;;-2.4;80.2
62980;BME280;49075;53.988;27.678;2023-01-30T16:36:32;965.8;;;-2.4;79.9
62980;BME280;49075;53.988;27.678;2023-01-30T16:41:38;965.8;;;-2.5;80
62980;BME280;49075;53.988;27.678;2023-01-30T16:46:58;965.8;;;-2.4;79.7
62980;BME280;49075;53.988;27.678;2023-01-30T16:51:37;965.7;;;-2.5;80.1
62980;BME280;49075;53.988;27.678;2023-01-30T16:56:15;965.6;;;-2.4;80.1
62980;BME280;49075;53.988;27.678;2023-01-30T17:01:35;965.7;;;-2.4;79.9
62980;BME280;49075;53.988;27.678;2023-01-30T17:06:27;965.8;;;-2.5;80.2
62980;BME280;49075;53.988;27.678;2023-01-30T17:11:39;965.8;;;-2.5;80.5
62980;BME280;49075;53.988;27.678;2023-01-30T17:16:35;965.8;;;-2.4;80.2
62980;BME280;49075;53.988;27.678;2023-01-30T17:21:15;965.8;;;-2.5;80.6
62980;BME280;49075;53.988;27.678;2023-01-30T17:26:37;965.9;;;-2.4;80
62980;BME280;49075;53.988;27.678;2023-01-30T17:31:35;965.9;;;-2.4;80
62980;BME280;49075;53.988;27.678;2023-01-30T17:36:16;965.9;;;-2.5;79.9
62980;BME280;49075;53.988;27.678;2023-01-30T17:41:26;965.9;;;-2.3;79.7
62980;BME280;49075;53.988;27.678;2023-01-30T17:46:40;965.9;;;-2.4;80.1
62980;BME280;49075;53.988;27.678;2023-01-30T17:51:15;965.9;;;-2.4;80.2
62980;BME280;49075;53.988;27.678;2023-01-30T17:56:16;965.9;;;-2.5;80.5
62980;BME280;49075;53.988;27.678;2023-01-30T18:01:15;965.8;;;-2.5;80.4
62980;BME280;49075;53.988;27.678;2023-01-30T18:06:15;965.8;;;-2.5;80.7
62980;BME280;49075;53.988;27.678;2023-01-30T18:11:15;965.9;;;-2.6;80.8
62980;BME280;49075;53.988;27.678;2023-01-30T18:16:47;965.8;;;-2.5;80.4
62980;BME280;49075;53.988;27.678;2023-01-30T18:21:15;965.9;;;-2.4;80.3
62980;BME280;49075;53.988;27.678;2023-01-30T18:26:15;966;;;-2.5;80.4
62980;BME280;49075;53.988;27.678;2023-01-30T18:31:35;966;;;-2.4;80.3
62980;BME280;49075;53.988;27.678;2023-01-30T18:36:33;966;;;-2.5;80.8
62980;BME280;49075;53.988;27.678;2023-01-30T18:41:25;966;;;-2.5;81.1
62980;BME280;49075;53.988;27.678;2023-01-30T18:46:16;966;;;-2.4;80.6
62980;BME280;49075;53.988;27.678;2023-01-30T18:51:15;966;;;-2.4;80.9
62980;BME280;49075;53.988;27.678;2023-01-30T18:56:25;966.1;;;-2.3;80.9
62980;BME280;49075;53.988;27.678;2023-01-30T19:01:16;966.1;;;-2.3;80.9
62980;BME280;49075;53.988;27.678;2023-01-30T19:06:16;966.2;;;-2.4;81.2
62980;BME280;49075;53.988;27.678;2023-01-30T19:11:35;966.2;;;-2.3;81.1
62980;BME280;49075;53.988;27.678;2023-01-30T19:16:37;966.3;;;-2.3;81
62980;BME280;49075;53.988;27.678;2023-01-30T19:21:26;966.3;;;-2.2;81
62980;BME280;49075;53.988;27.678;2023-01-30T19:26:15;966.3;;;-2.2;80.9
62980;BME280;49075;53.988;27.678;2023-01-30T19:31:25;966.3;;;-2.3;81.4
62980;BME280;49075;53.988;27.678;2023-01-30T19:36:27;966.3;;;-2.1;80.8
62980;BME280;49075;53.988;27.678;2023-01-30T19:41:37;966.4;;;-2.1;80.6
62980;BME280;49075;53.988;27.678;2023-01-30T19:46:25;966.3;;;-2.2;81
62980;BME280;49075;53.988;27.678;2023-01-30T19:51:26;966.3;;;-2.2;81.1
62980;BME280;49075;53.988;27.678;2023-01-30T19:56:25;966.3;;;-2.2;81.3
62980;BME280;49075;53.988;27.678;2023-01-30T20:01:33;966.4;;;-2.4;82
62980;BME280;49075;53.988;27.678;2023-01-30T20:06:26;966.4;;;-2.1;81.3
62980;BME280;49075;53.988;27.678;2023-01-30T20:11:15;966.4;;;-2.1;81.2
62980;BME280;49075;53.988;27.678;2023-01-30T20:16:25;966.4;;;-2.2;81.6
62980;BME280;49075;53.988;27.678;2023-01-30T20:21:27;966.4;;;-2.1;81.4
62980;BME280;49075;53.988;27.678;2023-01-30T20:26:16;966.5;;;-2.3;81.9
62980;BME280;49075;53.988;27.678;2023-01-30T20:31:16;966.6;;;-2.1;81.7
62980;BME280;49075;53.988;27.678;2023-01-30T20:36:25;966.7;;;-2;81.3
62980;BME280;49075;53.988;27.678;2023-01-30T20:41:27;966.7;;;-1.9;81
62980;BME280;49075;53.988;27.678;2023-01-30T20:46:16;966.8;;;-1.9;81.1
62980;BME280;49075;53.988;27.678;2023-01-30T20:51:16;966.7;;;-1.9;81.2
62980;BME280;49075;53.988;27.678;2023-01-30T20:56:47;966.8;;;-1.9;81
62980;BME280;49075;53.988;27.678;2023-01-30T21:26:26;966.8;;;-1.6;80.3
62980;BME280;49075;53.988;27.678;2023-01-30T21:31:47;966.8;;;-1.6;80.6
62980;BME280;49075;53.988;27.678;2023-01-30T21:36:15;966.8;;;-1.8;81.2
62980;BME280;49075;53.988;27.678;2023-01-30T21:41:38;966.8;;;-1.7;80.9
62980;BME280;49075;53.988;27.678;2023-01-30T21:46:25;966.8;;;-1.7;81.1
62980;BME280;49075;53.988;27.678;2023-01-30T21:51:15;966.7;;;-1.7;81.1
62980;BME280;49075;53.988;27.678;2023-01-30T21:56:15;966.8;;;-1.6;81.1
62980;BME280;49075;53.988;27.678;2023-01-30T22:01:15;966.8;;;-1.6;81
62980;BME280;49075;53.988;27.678;2023-01-30T22:06:25;966.7;;;-1.6;81
62980;BME280;49075;53.988;27.678;2023-01-30T22:11:23;966.7;;;-1.7;81.4
62980;BME280;49075;53.988;27.678;2023-01-30T22:16:14;966.8;;;-1.6;81.1
62980;BME280;49075;53.988;27.678;2023-01-30T22:21:13;966.9;;;-1.5;81.1
62980;BME280;49075;53.988;27.678;2023-01-30T22:26:33;967;;;-1.5;81.1
62980;BME280;49075;53.988;27.678;2023-01-30T22:31:35;967.1;;;-1.5;81
62980;BME280;49075;53.988;27.678;2023-01-30T22:36:39;967.1;;;-1.5;81.1
62980;BME280;49075;53.988;27.678;2023-01-30T22:41:25;967.1;;;-1.5;81.2
62980;BME280;49075;53.988;27.678;2023-01-30T22:47:01;967;;;-1.4;80.9
62980;BME280;49075;53.988;27.678;2023-01-30T22:51:15;966.9;;;-1.5;81.2
62980;BME280;49075;53.988;27.678;2023-01-30T22:56:16;966.9;;;-1.4;81.1
62980;BME280;49075;53.988;27.678;2023-01-30T23:01:23;967;;;-1.4;80.8
62980;BME280;49075;53.988;27.678;2023-01-30T23:06:23;966.9;;;-1.3;80.7
62980;BME280;49075;53.988;27.678;2023-01-30T23:11:14;966.9;;;-1.4;80.7
62980;BME280;49075;53.988;27.678;2023-01-30T23:16:35;966.8;;;-1.2;80.1
62980;BME280;49075;53.988;27.678;2023-01-30T23:21:24;966.9;;;-1.1;80.2
62980;BME280;49075;53.988;27.678;2023-01-30T23:26:13;966.9;;;-1.2;80.3
62980;BME280;49075;53.988;27.678;2023-01-30T23:31:27;966.9;;;-1.2;80.3
62980;BME280;49075;53.988;27.678;2023-01-30T23:36:23;966.9;;;-1.3;80.7
62980;BME280;49075;53.988;27.678;2023-01-30T23:41:47;966.8;;;-1.3;81
62980;BME280;49075;53.988;27.678;2023-01-30T23:46:23;966.9;;;-1.3;81
62980;BME280;49075;53.988;27.678;2023-01-30T23:51:26;966.8;;;-1.2;80.4
62980;BME280;49075;53.988;27.678;2023-01-30T23:56:25;966.9;;;-1.2;80.5
